Time;durP1;ratioP1;P1;durP2;ratioP2;P2;SDS_P1;SDS_P2;PMS_P1;PMS_P2;Temp;Humidity;BMP_temperature;BMP_pressure;BME280_temperature;BME280_humidity;BME280_pressure;Samples;Min_cycle;Max_cycle;Signal;HPM_P1;HPM_P2
2022/10/31 00:01:23;;;;;;;;;;;11.60;99.90;;;;;;5085488;28;20015;-89
2022/10/31 00:03:49;;;;;;;;;;;11.70;99.90;;;;;;5071978;28;20019;-88
2022/10/31 00:06:17;;;;;;;;;;;11.50;99.90;;;;;;5069689;28;20014;-88
2022/10/31 00:08:44;;;;;;;;;;;11.60;99.90;;;;;;5091293;28;19932;-88
2022/10/31 00:11:12;;;;;;;;;;;11.40;99.90;;;;;;5073822;28;20367;-88
2022/10/31 00:13:38;;;;;;;;;;;11.60;99.90;;;;;;5092383;28;19916;-89
2022/10/31 00:16:06;;;;;;;;;;;11.40;99.90;;;;;;5100395;28;19955;-88
2022/10/31 00:18:32;;;;;;;;;;;11.50;99.90;;;;;;5096768;28;19909;-87
2022/10/31 00:20:59;;;;;;;;;;;11.50;99.90;;;;;;5076257;28;19924;-88
2022/10/31 00:23:24;;;;;;;;;;;12.10;99.90;;;;;;5063675;28;20357;-88
2022/10/31 00:25:50;;;;;;;;;;;11.30;99.90;;;;;;5076043;28;19967;-88
2022/10/31 00:28:18;;;;;;;;;;;11.30;99.90;;;;;;5078916;28;19924;-88
2022/10/31 00:30:44;;;;;;;;;;;11.50;99.90;;;;;;5077441;28;19928;-88
2022/10/31 00:33:09;;;;;;;;;;;11.20;99.90;;;;;;5078401;28;19977;-88
2022/10/31 00:35:38;;;;;;;;;;;11.30;99.90;;;;;;5078250;28;19928;-88
2022/10/31 00:38:04;;;;;;;;;;;11.80;99.90;;;;;;5077458;28;19924;-88
2022/10/31 00:40:29;;;;;;;;;;;11.20;99.90;;;;;;5076718;28;20015;-88
2022/10/31 00:42:55;;;;;;;;;;;11.50;99.90;;;;;;5077872;28;20026;-89
2022/10/31 00:45:23;;;;;;;;;;;11.60;99.90;;;;;;5076430;28;19982;-88
2022/10/31 00:47:49;;;;;;;;;;;11.20;99.90;;;;;;5078262;28;19978;-89
2022/10/31 00:50:14;;;;;;;;;;;11.30;99.90;;;;;;5080464;28;19924;-88
2022/10/31 00:52:40;;;;;;;;;;;11.20;99.90;;;;;;5078879;28;19928;-88
2022/10/31 00:55:06;;;;;;;;;;;11.20;99.90;;;;;;5079286;28;19998;-88
2022/10/31 00:57:31;;;;;;;;;;;11.10;99.90;;;;;;5072165;28;20402;-88
2022/10/31 00:59:57;;;;;;;;;;;11.10;99.90;;;;;;5062659;28;19998;-88
2022/10/31 01:02:23;;;;;;;;;;;11.20;99.90;;;;;;5080559;28;20003;-88
2022/10/31 01:04:51;;;;;;;;;;;11.10;99.90;;;;;;5079923;28;19932;-88
2022/10/31 01:07:16;;;;;;;;;;;11.10;99.90;;;;;;5099574;28;19925;-88
2022/10/31 01:09:42;;;;;;;;;;;11.00;99.90;;;;;;5089181;28;19932;-88
2022/10/31 01:12:08;;;;;;;;;;;11.00;99.90;;;;;;5087603;28;20011;-88
2022/10/31 01:14:35;;;;;;;;;;;11.00;99.90;;;;;;5077436;28;19931;-88
2022/10/31 01:17:01;;;;;;;;;;;11.00;99.90;;;;;;5080915;28;19979;-89
2022/10/31 01:19:29;;;;;;;;;;;11.00;99.90;;;;;;5075481;28;19924;-88
2022/10/31 01:21:55;;;;;;;;;;;11.00;99.90;;;;;;5070520;28;19929;-88
2022/10/31 01:24:21;;;;;;;;;;;11.10;99.90;;;;;;5064894;28;19982;-88
2022/10/31 01:26:49;;;;;;;;;;;11.10;99.90;;;;;;5077365;28;19924;-88
2022/10/31 01:29:18;;;;;;;;;;;10.90;99.90;;;;;;5062360;28;19924;-88
2022/10/31 01:31:44;;;;;;;;;;;10.90;99.90;;;;;;5076927;28;19931;-88
2022/10/31 01:34:13;;;;;;;;;;;11.00;99.90;;;;;;5077792;28;19982;-88
2022/10/31 01:36:39;;;;;;;;;;;11.20;99.90;;;;;;5077821;28;20015;-88
2022/10/31 01:39:09;;;;;;;;;;;11.00;99.90;;;;;;5073275;28;20406;-88
2022/10/31 01:41:36;;;;;;;;;;;11.00;99.90;;;;;;5074403;28;19925;-88
2022/10/31 01:44:17;;;;;;;;;;;11.00;99.90;;;;;;5094331;28;19924;-88
2022/10/31 01:46:43;;;;;;;;;;;10.90;99.90;;;;;;5077818;28;20287;-88
2022/10/31 01:49:14;;;;;;;;;;;10.90;99.90;;;;;;5077672;28;19931;-88
2022/10/31 01:51:42;;;;;;;;;;;10.90;99.90;;;;;;5077605;28;20284;-89
2022/10/31 01:54:11;;;;;;;;;;;10.90;99.90;;;;;;5078749;28;19933;-88
2022/10/31 01:56:40;;;;;;;;;;;10.80;99.90;;;;;;5069331;28;20299;-89
2022/10/31 01:59:07;;;;;;;;;;;10.80;99.90;;;;;;5077314;28;20069;-88
2022/10/31 02:01:33;;;;;;;;;;;11.00;99.90;;;;;;5077309;28;19980;-88
2022/10/31 02:03:59;;;;;;;;;;;10.80;99.90;;;;;;5077104;28;20014;-88
2022/10/31 02:06:38;;;;;;;;;;;10.80;99.90;;;;;;5073462;28;19924;-88
2022/10/31 02:09:05;;;;;;;;;;;10.80;99.90;;;;;;5070126;28;19931;-88
2022/10/31 02:11:33;;;;;;;;;;;10.70;99.90;;;;;;5076438;28;19936;-88
2022/10/31 02:14:00;;;;;;;;;;;9.20;99.90;;;;;;5073410;28;19931;-88
2022/10/31 02:16:25;;;;;;;;;;;10.70;99.90;;;;;;5072770;28;19931;-88
2022/10/31 02:18:51;;;;;;;;;;;10.60;99.90;;;;;;5090140;28;19924;-88
2022/10/31 02:21:23;;;;;;;;;;;10.70;99.90;;;;;;5074974;28;19924;-88
2022/10/31 02:23:58;;;;;;;;;;;10.70;99.90;;;;;;5066367;28;19998;-88
2022/10/31 02:26:43;;;;;;;;;;;10.60;99.90;;;;;;5076265;28;20352;-88
2022/10/31 02:29:27;;;;;;;;;;;10.60;99.90;;;;;;5075161;28;20437;-89
2022/10/31 02:32:16;;;;;;;;;;;10.50;99.90;;;;;;5074698;28;19924;-88
2022/10/31 02:34:48;;;;;;;;;;;10.50;99.90;;;;;;5057829;28;19924;-87
2022/10/31 02:37:32;;;;;;;;;;;10.50;99.90;;;;;;5068387;28;19925;-88
2022/10/31 02:40:14;;;;;;;;;;;9.00;99.90;;;;;;5074264;28;19968;-87
2022/10/31 02:42:48;;;;;;;;;;;10.40;99.90;;;;;;5072264;28;19924;-88
2022/10/31 02:45:17;;;;;;;;;;;10.40;99.90;;;;;;5076231;28;20057;-88
2022/10/31 02:47:44;;;;;;;;;;;10.20;99.90;;;;;;5072348;28;19939;-88
2022/10/31 02:50:19;;;;;;;;;;;10.60;99.90;;;;;;5066354;28;19924;-89
2022/10/31 02:52:50;;;;;;;;;;;10.60;99.90;;;;;;5074633;28;19924;-88
2022/10/31 02:55:24;;;;;;;;;;;11.20;99.90;;;;;;5076787;28;20240;-89
2022/10/31 02:57:51;;;;;;;;;;;10.60;99.90;;;;;;5092656;28;20424;-88
2022/10/31 03:00:17;;;;;;;;;;;10.70;99.90;;;;;;5075681;28;19925;-88
2022/10/31 03:03:01;;;;;;;;;;;10.50;99.90;;;;;;5076549;28;19924;-89
2022/10/31 03:05:32;;;;;;;;;;;9.20;99.90;;;;;;5096376;28;19914;-86
2022/10/31 03:07:58;;;;;;;;;;;10.40;99.90;;;;;;5115469;28;20010;-86
2022/10/31 03:10:34;;;;;;;;;;;10.40;99.90;;;;;;5101132;28;19916;-87
2022/10/31 03:13:12;;;;;;;;;;;10.50;99.90;;;;;;5097151;28;19908;-89
2022/10/31 03:15:40;;;;;;;;;;;10.30;99.90;;;;;;5083183;28;19924;-88
2022/10/31 03:18:14;;;;;;;;;;;10.50;99.90;;;;;;5077212;28;19924;-87
2022/10/31 03:20:42;;;;;;;;;;;10.50;99.90;;;;;;5077257;28;19975;-87
2022/10/31 03:23:10;;;;;;;;;;;10.30;99.90;;;;;;5080398;28;19953;-87
2022/10/31 03:25:37;;;;;;;;;;;10.30;99.90;;;;;;5091752;28;19925;-87
2022/10/31 03:28:04;;;;;;;;;;;10.30;99.90;;;;;;5064404;28;20410;-87
2022/10/31 03:30:30;;;;;;;;;;;10.30;99.90;;;;;;5070062;28;20257;-87
2022/10/31 03:33:00;;;;;;;;;;;10.30;99.90;;;;;;5069504;28;19940;-87
2022/10/31 03:35:27;;;;;;;;;;;10.30;99.90;;;;;;5072708;28;20011;-88
2022/10/31 03:37:53;;;;;;;;;;;10.30;99.90;;;;;;5070107;28;20041;-87
2022/10/31 03:40:21;;;;;;;;;;;10.20;99.90;;;;;;5074053;28;19954;-87
2022/10/31 03:42:51;;;;;;;;;;;10.20;99.90;;;;;;5070952;28;20054;-87
2022/10/31 03:45:24;;;;;;;;;;;10.10;99.90;;;;;;5070541;28;19924;-87
2022/10/31 03:47:53;;;;;;;;;;;10.30;99.90;;;;;;5070022;28;19933;-87
2022/10/31 03:50:19;;;;;;;;;;;10.20;99.90;;;;;;5068221;28;20342;-87
2022/10/31 03:52:46;;;;;;;;;;;8.80;99.90;;;;;;5070141;28;19943;-86
2022/10/31 03:55:17;;;;;;;;;;;10.20;99.90;;;;;;5069464;28;19928;-87
2022/10/31 03:57:45;;;;;;;;;;;10.30;99.90;;;;;;5079639;28;20011;-87
2022/10/31 04:00:12;;;;;;;;;;;10.10;99.90;;;;;;5076495;28;20354;-87
2022/10/31 04:02:40;;;;;;;;;;;10.10;99.90;;;;;;5077587;28;19974;-88
2022/10/31 04:05:06;;;;;;;;;;;10.00;99.90;;;;;;5076784;28;20250;-87
2022/10/31 04:07:40;;;;;;;;;;;10.10;99.90;;;;;;5074694;28;19970;-87
2022/10/31 04:10:07;;;;;;;;;;;10.10;99.90;;;;;;5071851;28;19925;-87
2022/10/31 04:12:34;;;;;;;;;;;10.00;99.90;;;;;;5075360;28;19947;-88
2022/10/31 04:15:04;;;;;;;;;;;10.00;99.90;;;;;;5073381;28;19947;-87
2022/10/31 04:17:32;;;;;;;;;;;9.90;99.90;;;;;;5078000;28;19924;-87
2022/10/31 04:19:59;;;;;;;;;;;9.90;99.90;;;;;;5071955;28;20403;-87
2022/10/31 04:22:40;;;;;;;;;;;9.90;99.90;;;;;;5074986;28;19978;-86
2022/10/31 04:25:06;;;;;;;;;;;8.70;99.90;;;;;;5077970;28;19930;-87
2022/10/31 04:27:32;;;;;;;;;;;9.80;99.90;;;;;;5077323;28;19970;-87
2022/10/31 04:30:00;;;;;;;;;;;9.80;99.90;;;;;;5077800;28;20360;-87
2022/10/31 04:32:26;;;;;;;;;;;9.80;99.90;;;;;;5094945;28;19924;-87
2022/10/31 04:34:51;;;;;;;;;;;9.70;99.90;;;;;;5073226;28;19931;-88
2022/10/31 04:37:17;;;;;;;;;;;9.80;99.90;;;;;;5095745;28;19936;-89
2022/10/31 04:39:45;;;;;;;;;;;9.80;99.90;;;;;;5101606;28;19935;-89
2022/10/31 04:42:11;;;;;;;;;;;9.80;99.90;;;;;;5119664;28;19935;-88
2022/10/31 04:44:36;;;;;;;;;;;9.70;99.90;;;;;;5078714;28;19924;-88
2022/10/31 04:47:02;;;;;;;;;;;9.70;99.90;;;;;;5074912;28;19924;-87
2022/10/31 04:49:27;;;;;;;;;;;9.80;99.90;;;;;;5082894;28;19928;-87
2022/10/31 04:51:53;;;;;;;;;;;9.60;99.90;;;;;;5059050;28;19925;-87
2022/10/31 04:54:19;;;;;;;;;;;9.70;99.90;;;;;;5074325;28;19932;-88
2022/10/31 04:56:47;;;;;;;;;;;9.60;99.90;;;;;;5079449;28;20022;-88
2022/10/31 04:59:13;;;;;;;;;;;10.10;99.90;;;;;;5082548;28;19986;-88
2022/10/31 05:01:39;;;;;;;;;;;9.80;99.90;;;;;;5082064;28;19923;-87
2022/10/31 05:04:04;;;;;;;;;;;10.00;99.90;;;;;;5084441;28;19943;-87
2022/10/31 05:06:30;;;;;;;;;;;9.60;99.90;;;;;;5078724;28;19935;-88
2022/10/31 05:08:55;;;;;;;;;;;9.50;99.90;;;;;;5078338;28;19924;-88
2022/10/31 05:11:21;;;;;;;;;;;9.60;99.90;;;;;;5098856;28;19924;-88
2022/10/31 05:13:47;;;;;;;;;;;9.50;99.90;;;;;;5078541;28;19931;-87
2022/10/31 05:16:12;;;;;;;;;;;9.40;99.90;;;;;;5079704;28;19986;-87
2022/10/31 05:18:38;;;;;;;;;;;9.40;99.90;;;;;;5081961;28;19977;-88
2022/10/31 05:21:04;;;;;;;;;;;9.40;99.90;;;;;;5079937;28;19924;-87
2022/10/31 05:23:29;;;;;;;;;;;9.40;99.90;;;;;;5076585;28;19924;-87
2022/10/31 05:25:55;;;;;;;;;;;9.30;99.90;;;;;;5076844;28;19925;-87
2022/10/31 05:28:21;;;;;;;;;;;9.60;99.90;;;;;;5077830;28;19966;-87
2022/10/31 05:30:49;;;;;;;;;;;9.30;99.90;;;;;;5094938;28;19925;-87
2022/10/31 05:33:15;;;;;;;;;;;9.30;99.90;;;;;;5076036;28;20288;-86
2022/10/31 05:35:40;;;;;;;;;;;8.00;99.90;;;;;;5077376;28;19935;-88
2022/10/31 05:38:08;;;;;;;;;;;10.30;99.90;;;;;;5076376;28;19924;-86
2022/10/31 05:40:34;;;;;;;;;;;9.30;99.90;;;;;;5063383;28;20352;-87
2022/10/31 05:42:59;;;;;;;;;;;9.20;99.90;;;;;;5087995;28;19930;-87
2022/10/31 05:45:25;;;;;;;;;;;9.20;99.90;;;;;;5076782;28;19924;-87
2022/10/31 05:47:55;;;;;;;;;;;9.20;99.90;;;;;;5093694;28;20018;-87
2022/10/31 05:50:25;;;;;;;;;;;9.60;99.90;;;;;;5077348;28;19932;-87
2022/10/31 05:52:55;;;;;;;;;;;9.20;99.90;;;;;;5063215;28;19929;-87
2022/10/31 05:55:20;;;;;;;;;;;9.20;99.90;;;;;;5074770;28;19928;-88
2022/10/31 05:57:46;;;;;;;;;;;9.20;99.90;;;;;;5076998;28;19985;-87
2022/10/31 06:00:13;;;;;;;;;;;9.20;99.90;;;;;;5076422;28;19930;-87
2022/10/31 06:02:38;;;;;;;;;;;9.10;99.90;;;;;;5063454;28;19924;-87
2022/10/31 06:05:04;;;;;;;;;;;8.10;99.90;;;;;;5072105;28;19969;-87
2022/10/31 06:07:34;;;;;;;;;;;9.20;99.90;;;;;;5081421;28;19925;-87
2022/10/31 06:09:59;;;;;;;;;;;9.20;99.90;;;;;;5079645;28;19932;-88
2022/10/31 06:12:25;;;;;;;;;;;9.20;99.90;;;;;;5072276;28;19931;-87
2022/10/31 06:14:51;;;;;;;;;;;9.10;99.90;;;;;;5084020;28;19924;-87
2022/10/31 06:17:28;;;;;;;;;;;9.20;99.90;;;;;;5074919;28;19989;-87
2022/10/31 06:19:54;;;;;;;;;;;8.20;99.90;;;;;;5076539;28;19924;-88
2022/10/31 06:22:20;;;;;;;;;;;9.30;99.90;;;;;;5076314;28;20145;-87
2022/10/31 06:24:45;;;;;;;;;;;9.10;99.90;;;;;;5071755;28;20015;-87
2022/10/31 06:27:11;;;;;;;;;;;9.10;99.90;;;;;;5081450;28;19986;-87
2022/10/31 06:29:39;;;;;;;;;;;9.10;99.90;;;;;;5088343;28;19924;-87
2022/10/31 06:32:05;;;;;;;;;;;8.10;99.90;;;;;;5077081;28;20000;-90
2022/10/31 06:34:33;;;;;;;;;;;9.10;99.90;;;;;;5070044;28;19925;-88
2022/10/31 06:37:02;;;;;;;;;;;9.10;99.90;;;;;;5052219;28;19928;-88
2022/10/31 06:39:27;;;;;;;;;;;9.10;99.90;;;;;;5074500;28;20244;-87
2022/10/31 06:41:55;;;;;;;;;;;9.10;99.90;;;;;;5069962;28;19928;-89
2022/10/31 06:44:21;;;;;;;;;;;9.10;99.90;;;;;;5075825;28;20395;-87
2022/10/31 06:46:47;;;;;;;;;;;9.00;99.90;;;;;;5087731;28;19983;-90
2022/10/31 06:49:13;;;;;;;;;;;9.00;99.90;;;;;;5100210;28;20329;-86
2022/10/31 06:51:41;;;;;;;;;;;9.00;99.90;;;;;;5078400;28;19925;-86
2022/10/31 06:54:06;;;;;;;;;;;9.00;99.90;;;;;;5072759;28;20453;-86
2022/10/31 06:56:32;;;;;;;;;;;9.00;99.90;;;;;;5076465;28;19924;-87
2022/10/31 06:58:58;;;;;;;;;;;8.90;99.90;;;;;;5071449;28;19928;-88
2022/10/31 07:01:23;;;;;;;;;;;9.10;99.90;;;;;;5081286;28;19976;-87
2022/10/31 07:03:52;;;;;;;;;;;9.10;99.90;;;;;;5075714;28;20279;-87
2022/10/31 07:06:23;;;;;;;;;;;8.80;99.90;;;;;;5071536;28;19947;-88
2022/10/31 07:08:50;;;;;;;;;;;9.00;99.90;;;;;;5065660;28;20069;-89
2022/10/31 07:11:42;;;;;;;;;;;9.00;99.90;;;;;;5074468;28;19939;-93
2022/10/31 07:16:55;;;;;;;;;;;9.10;99.90;;;;;;5081801;28;19931;-92
2022/10/31 07:19:24;;;;;;;;;;;9.30;99.90;;;;;;5064392;28;20011;-92
2022/10/31 07:21:52;;;;;;;;;;;9.10;99.90;;;;;;5079053;28;20022;-94
2022/10/31 07:24:18;;;;;;;;;;;9.40;99.90;;;;;;5081664;28;19924;-93
2022/10/31 07:26:51;;;;;;;;;;;9.10;99.90;;;;;;5097009;28;19912;-92
2022/10/31 07:29:22;;;;;;;;;;;9.20;99.90;;;;;;5105809;28;20958;-93
2022/10/31 07:31:48;;;;;;;;;;;9.80;99.90;;;;;;5090696;28;19919;-93
2022/10/31 07:34:41;;;;;;;;;;;8.10;99.90;;;;;;5104726;28;19971;-92
2022/10/31 07:40:11;;;;;;;;;;;9.50;99.90;;;;;;5124720;28;19913;-91
2022/10/31 07:42:43;;;;;;;;;;;9.30;99.90;;;;;;5100659;28;19928;-93
2022/10/31 07:45:10;;;;;;;;;;;9.10;99.90;;;;;;5105978;28;19912;-92
2022/10/31 07:47:41;;;;;;;;;;;9.60;99.90;;;;;;5087487;28;19978;-92
2022/10/31 07:50:08;;;;;;;;;;;9.50;99.90;;;;;;5096426;28;19931;-90
2022/10/31 07:52:36;;;;;;;;;;;9.60;99.90;;;;;;5091968;28;19932;-90
2022/10/31 07:55:02;;;;;;;;;;;10.50;99.90;;;;;;5088859;28;20001;-92
2022/10/31 07:57:28;;;;;;;;;;;9.70;99.90;;;;;;5079022;28;19936;-93
2022/10/31 07:59:54;;;;;;;;;;;9.70;99.90;;;;;;5082887;28;20308;-92
2022/10/31 08:02:22;;;;;;;;;;;9.80;99.90;;;;;;5080636;28;19950;-91
2022/10/31 08:04:48;;;;;;;;;;;9.80;99.90;;;;;;5081487;28;19963;-91
2022/10/31 08:07:16;;;;;;;;;;;10.00;99.90;;;;;;5078981;28;19924;-91
2022/10/31 08:09:44;;;;;;;;;;;10.10;99.90;;;;;;5076510;28;20023;-92
2022/10/31 08:12:10;;;;;;;;;;;10.00;99.90;;;;;;5060961;28;19986;-89
2022/10/31 08:14:35;;;;;;;;;;;10.00;99.90;;;;;;5075846;28;19960;-91
2022/10/31 08:17:01;;;;;;;;;;;10.10;99.90;;;;;;5093953;28;20398;-91
2022/10/31 08:19:27;;;;;;;;;;;8.90;99.90;;;;;;5082286;28;19975;-91
2022/10/31 08:21:54;;;;;;;;;;;9.30;99.90;;;;;;5101257;28;20295;-91
2022/10/31 08:24:20;;;;;;;;;;;10.20;99.90;;;;;;5095616;28;19940;-92
2022/10/31 08:26:46;;;;;;;;;;;10.20;99.90;;;;;;5078491;28;19929;-92
2022/10/31 08:29:12;;;;;;;;;;;10.20;99.90;;;;;;5080213;28;19943;-91
2022/10/31 08:31:38;;;;;;;;;;;10.30;99.90;;;;;;5083113;28;20278;-92
2022/10/31 08:34:12;;;;;;;;;;;10.40;99.90;;;;;;5092955;28;20014;-91
2022/10/31 08:36:48;;;;;;;;;;;10.40;99.90;;;;;;5062790;28;19964;-91
2022/10/31 08:39:24;;;;;;;;;;;;;;;;;;;;;
2022/10/31 08:41:52;;;;;;;;;;;10.40;99.90;;;;;;5089833;28;19932;-90
2022/10/31 08:44:21;;;;;;;;;;;10.50;99.90;;;;;;5059676;28;21234;-91
2022/10/31 08:46:57;;;;;;;;;;;10.40;99.90;;;;;;5081057;28;20380;-92
2022/10/31 08:49:23;;;;;;;;;;;12.10;99.90;;;;;;5078065;28;19928;-91
2022/10/31 08:52:06;;;;;;;;;;;10.50;99.90;;;;;;5076744;28;20217;-90
2022/10/31 08:54:39;;;;;;;;;;;10.90;99.90;;;;;;5083037;28;19928;-91
2022/10/31 08:57:04;;;;;;;;;;;10.70;99.90;;;;;;5087034;28;19939;-89
2022/10/31 08:59:30;;;;;;;;;;;10.50;99.90;;;;;;5083577;28;19928;-92
2022/10/31 09:01:56;;;;;;;;;;;9.40;99.90;;;;;;5069289;28;19935;-91
2022/10/31 09:04:26;;;;;;;;;;;10.50;99.90;;;;;;5070819;28;19935;-92
2022/10/31 09:06:52;;;;;;;;;;;10.60;99.90;;;;;;5077174;28;19925;-92
2022/10/31 09:09:20;;;;;;;;;;;10.70;99.90;;;;;;5079417;28;19924;-93
2022/10/31 09:11:48;;;;;;;;;;;10.60;99.90;;;;;;5075337;28;19931;-93
2022/10/31 09:14:14;;;;;;;;;;;10.60;99.90;;;;;;5088813;28;19950;-90
2022/10/31 09:16:42;;;;;;;;;;;10.70;99.90;;;;;;5098296;28;19924;-90
2022/10/31 09:19:07;;;;;;;;;;;10.70;99.90;;;;;;5073173;28;19924;-89
2022/10/31 09:21:35;;;;;;;;;;;10.70;99.90;;;;;;5094871;28;19931;-92
2022/10/31 09:24:09;;;;;;;;;;;10.80;99.90;;;;;;5083849;28;19928;-95
2022/10/31 09:26:34;;;;;;;;;;;10.80;99.90;;;;;;5080923;28;19935;-94
2022/10/31 09:29:01;;;;;;;;;;;10.80;99.90;;;;;;5074040;28;20255;-91
2022/10/31 09:31:34;;;;;;;;;;;10.90;99.90;;;;;;5093266;28;20016;-92
2022/10/31 09:34:00;;;;;;;;;;;10.90;99.90;;;;;;5070705;28;19928;-94
2022/10/31 09:36:28;;;;;;;;;;;11.00;99.90;;;;;;5078878;28;19924;-93
2022/10/31 09:39:12;;;;;;;;;;;11.00;99.90;;;;;;5079606;28;19973;-91
2022/10/31 09:41:50;;;;;;;;;;;11.10;99.90;;;;;;5074837;28;19928;-90
2022/10/31 09:44:21;;;;;;;;;;;11.00;99.90;;;;;;5086906;28;19930;-94
2022/10/31 09:47:01;;;;;;;;;;;12.50;99.90;;;;;;5096674;28;19931;-96
2022/10/31 09:49:37;;;;;;;;;;;10.40;99.90;;;;;;5093422;28;19924;-94
2022/10/31 09:52:14;;;;;;;;;;;12.40;99.90;;;;;;5072658;22;19996;-92
2022/10/31 09:54:43;;;;;;;;;;;11.60;99.90;;;;;;5062919;28;19936;-92
2022/10/31 09:57:13;;;;;;;;;;;11.70;99.90;;;;;;5073500;28;19943;-92
2022/10/31 09:59:39;;;;;;;;;;;11.70;99.90;;;;;;5057406;28;19921;-94
2022/10/31 10:02:11;;;;;;;;;;;11.80;99.90;;;;;;5040244;28;19921;-93
2022/10/31 10:04:40;;;;;;;;;;;11.90;99.90;;;;;;5052971;28;20046;-94
2022/10/31 10:07:13;;;;;;;;;;;11.90;99.90;;;;;;5047670;28;19974;-93
2022/10/31 10:09:39;;;;;;;;;;;11.90;99.90;;;;;;5058942;28;19980;-93
2022/10/31 10:12:14;;;;;;;;;;;12.00;99.90;;;;;;5049156;28;19951;-92
2022/10/31 10:14:55;;;;;;;;;;;12.10;99.90;;;;;;5059676;28;19947;-93
2022/10/31 10:17:31;;;;;;;;;;;12.20;99.90;;;;;;5041666;28;20301;-94
2022/10/31 10:20:12;;;;;;;;;;;12.30;99.90;;;;;;5038224;28;19956;-93
2022/10/31 10:22:57;;;;;;;;;;;12.30;99.90;;;;;;5056062;28;19925;-93
2022/10/31 10:25:24;;;;;;;;;;;12.30;99.90;;;;;;5056549;28;19975;-93
2022/10/31 10:28:08;;;;;;;;;;;12.30;99.90;;;;;;5042494;28;20011;-94
2022/10/31 10:30:38;;;;;;;;;;;12.30;99.90;;;;;;5043395;28;19925;-92
2022/10/31 10:33:08;;;;;;;;;;;12.30;99.90;;;;;;5043008;28;19928;-93
2022/10/31 10:35:35;;;;;;;;;;;12.30;99.90;;;;;;5043114;28;19924;-94
2022/10/31 10:38:21;;;;;;;;;;;12.30;99.90;;;;;;5042940;28;19925;-92
2022/10/31 10:40:47;;;;;;;;;;;12.40;99.90;;;;;;5042196;28;19928;-96
2022/10/31 10:43:32;;;;;;;;;;;12.50;99.90;;;;;;5043037;28;20383;-95
2022/10/31 10:48:57;;;;;;;;;;;12.50;99.90;;;;;;5058847;28;19929;-94
2022/10/31 10:51:43;;;;;;;;;;;12.60;99.90;;;;;;5042844;28;20419;-95
2022/10/31 10:54:27;;;;;;;;;;;12.70;99.90;;;;;;5057442;28;19932;-95
2022/10/31 10:56:53;;;;;;;;;;;12.70;99.90;;;;;;5042168;28;19933;-94
2022/10/31 10:59:19;;;;;;;;;;;12.70;99.90;;;;;;5042763;28;19924;-95
2022/10/31 11:01:45;;;;;;;;;;;12.70;99.90;;;;;;5042885;28;19964;-96
2022/10/31 11:04:21;;;;;;;;;;;12.80;99.90;;;;;;5038947;28;20447;-95
2022/10/31 11:06:56;;;;;;;;;;;13.00;99.90;;;;;;5042375;28;19981;-95
2022/10/31 11:09:21;;;;;;;;;;;13.10;99.90;;;;;;5040303;28;19971;-94
2022/10/31 11:11:47;;;;;;;;;;;13.10;99.90;;;;;;5026223;28;20360;-94
2022/10/31 11:14:14;;;;;;;;;;;13.20;99.90;;;;;;5047774;28;19968;-95
2022/10/31 11:16:41;;;;;;;;;;;13.30;99.90;;;;;;5073581;28;19921;-96
2022/10/31 11:19:16;;;;;;;;;;;13.50;99.90;;;;;;5055196;28;19976;-94
2022/10/31 11:21:42;;;;;;;;;;;13.60;99.90;;;;;;5044744;28;19933;-93
2022/10/31 11:24:12;;;;;;;;;;;13.60;99.90;;;;;;5022918;28;19983;-96
2022/10/31 11:26:39;;;;;;;;;;;13.70;99.90;;;;;;5040408;28;19978;-95
2022/10/31 11:29:07;;;;;;;;;;;13.70;99.90;;;;;;5027013;28;19935;-96
2022/10/31 11:31:34;;;;;;;;;;;13.80;99.90;;;;;;5027304;28;20280;-92
2022/10/31 11:34:01;;;;;;;;;;;13.80;99.90;;;;;;5045098;28;19925;-93
2022/10/31 11:36:30;;;;;;;;;;;13.80;99.90;;;;;;5045238;28;19962;-94
2022/10/31 11:38:58;;;;;;;;;;;13.80;99.90;;;;;;5044733;28;20137;-94
2022/10/31 11:41:31;;;;;;;;;;;13.80;99.90;;;;;;5050510;28;19987;-95
2022/10/31 11:44:02;;;;;;;;;;;13.70;99.90;;;;;;5055978;28;19931;-93
2022/10/31 11:46:47;;;;;;;;;;;13.80;99.90;;;;;;5051738;28;19925;-95
2022/10/31 11:49:16;;;;;;;;;;;12.80;99.90;;;;;;5064289;28;19935;-95
2022/10/31 11:51:47;;;;;;;;;;;14.50;99.90;;;;;;5044057;28;20463;-94
2022/10/31 11:54:22;;;;;;;;;;;13.90;99.90;;;;;;5027629;28;19925;-94
2022/10/31 11:56:49;;;;;;;;;;;13.80;99.90;;;;;;5025590;28;20551;-94
2022/10/31 11:59:29;;;;;;;;;;;13.50;99.90;;;;;;5023794;28;19994;-95
2022/10/31 12:02:01;;;;;;;;;;;13.90;99.90;;;;;;5051017;28;19940;-95
2022/10/31 12:04:40;;;;;;;;;;;14.00;99.90;;;;;;5034963;28;19940;-94
2022/10/31 12:07:18;;;;;;;;;;;14.40;99.90;;;;;;5032809;28;20028;-95
2022/10/31 12:09:47;;;;;;;;;;;14.10;99.90;;;;;;5060086;28;19925;-95
2022/10/31 12:12:16;;;;;;;;;;;13.20;99.90;;;;;;5028779;28;19936;-95
2022/10/31 12:14:51;;;;;;;;;;;14.10;99.90;;;;;;5039997;28;19924;-95
2022/10/31 12:17:36;;;;;;;;;;;14.10;99.90;;;;;;5030082;28;19925;-94
2022/10/31 12:20:08;;;;;;;;;;;13.30;99.90;;;;;;5032667;28;19924;-95
2022/10/31 12:22:53;;;;;;;;;;;14.90;99.90;;;;;;5034652;28;19924;-95
2022/10/31 12:25:21;;;;;;;;;;;14.40;99.90;;;;;;5028428;28;19925;-95
2022/10/31 12:28:07;;;;;;;;;;;14.40;99.90;;;;;;5043136;28;19925;-96
2022/10/31 12:30:46;;;;;;;;;;;14.40;99.90;;;;;;5054001;28;19928;-95
2022/10/31 12:33:12;;;;;;;;;;;14.50;99.90;;;;;;5057651;28;19928;-95
2022/10/31 12:35:47;;;;;;;;;;;13.50;99.90;;;;;;5052355;28;20008;-95
2022/10/31 12:38:42;;;;;;;;;;;14.60;99.90;;;;;;5043203;28;19927;-96
2022/10/31 12:41:13;;;;;;;;;;;14.70;99.90;;;;;;5063471;28;19932;-95
2022/10/31 12:43:58;;;;;;;;;;;14.60;99.90;;;;;;5074796;28;19921;-94
2022/10/31 12:46:24;;;;;;;;;;;14.30;99.90;;;;;;5037679;28;19931;-96
2022/10/31 12:49:04;;;;;;;;;;;14.40;99.90;;;;;;5054427;28;19925;-96
2022/10/31 12:51:50;;;;;;;;;;;16.00;99.90;;;;;;5069304;28;19947;-94
2022/10/31 12:54:34;;;;;;;;;;;14.60;99.90;;;;;;5058625;28;19929;-95
2022/10/31 12:57:24;;;;;;;;;;;14.80;99.90;;;;;;5055679;28;19932;-96
2022/10/31 12:59:52;;;;;;;;;;;14.60;99.90;;;;;;5054837;28;19928;-96
2022/10/31 13:02:18;;;;;;;;;;;14.70;99.90;;;;;;5056329;28;19982;-95
2022/10/31 13:04:51;;;;;;;;;;;14.70;99.90;;;;;;5052965;28;20006;-95
2022/10/31 13:07:32;;;;;;;;;;;13.70;99.90;;;;;;5050444;28;19925;-96
2022/10/31 13:10:08;;;;;;;;;;;15.50;99.90;;;;;;5042859;28;19925;-96
2022/10/31 13:12:35;;;;;;;;;;;15.30;99.90;;;;;;5044604;28;19994;-96
2022/10/31 13:15:11;;;;;;;;;;;14.20;99.90;;;;;;5049469;28;19928;-96
2022/10/31 13:17:46;;;;;;;;;;;14.70;99.90;;;;;;5042869;28;20368;-96
2022/10/31 13:20:44;;;;;;;;;;;14.30;99.90;;;;;;5045347;28;19943;-96
2022/10/31 13:23:20;;;;;;;;;;;13.40;99.90;;;;;;5027069;28;19988;-96
2022/10/31 13:25:57;;;;;;;;;;;14.70;99.90;;;;;;5053141;28;20420;-95
2022/10/31 13:28:41;;;;;;;;;;;13.50;99.90;;;;;;5049955;28;19925;-96
2022/10/31 13:31:08;;;;;;;;;;;13.70;99.90;;;;;;5059931;28;19935;-96
2022/10/31 13:33:39;;;;;;;;;;;14.60;99.90;;;;;;5039937;28;19929;-95
2022/10/31 13:36:17;;;;;;;;;;;14.70;99.90;;;;;;5051218;28;19960;-94
2022/10/31 13:38:52;;;;;;;;;;;14.90;99.90;;;;;;5057181;28;19925;-94
2022/10/31 13:41:31;;;;;;;;;;;14.70;99.90;;;;;;5053880;28;19921;-95
2022/10/31 13:44:02;;;;;;;;;;;14.20;99.90;;;;;;5071788;28;19951;-95
2022/10/31 13:46:31;;;;;;;;;;;14.90;99.90;;;;;;5056409;28;19921;-94
2022/10/31 13:48:57;;;;;;;;;;;14.00;99.90;;;;;;5070521;28;19928;-95
2022/10/31 13:51:32;;;;;;;;;;;14.30;99.90;;;;;;5070724;28;19929;-95
2022/10/31 13:54:00;;;;;;;;;;;13.80;99.90;;;;;;5056144;28;19925;-95
2022/10/31 13:56:37;;;;;;;;;;;14.10;99.90;;;;;;5068282;28;19968;-95
2022/10/31 13:59:08;;;;;;;;;;;14.30;99.90;;;;;;5037780;28;19929;-95
2022/10/31 14:01:35;;;;;;;;;;;14.80;99.90;;;;;;5052374;28;19924;-95
2022/10/31 14:04:13;;;;;;;;;;;13.90;99.90;;;;;;5053700;28;19921;-95
2022/10/31 14:06:52;;;;;;;;;;;14.20;99.90;;;;;;5071425;28;19921;-95
2022/10/31 14:09:24;;;;;;;;;;;14.70;99.90;;;;;;5056047;28;20427;-94
2022/10/31 14:11:53;;;;;;;;;;;14.80;99.90;;;;;;5064084;28;19925;-93
2022/10/31 14:14:23;;;;;;;;;;;13.60;99.90;;;;;;5051661;28;19936;-96
2022/10/31 14:16:56;;;;;;;;;;;14.50;99.90;;;;;;5055155;28;19931;-94
2022/10/31 14:19:23;;;;;;;;;;;14.60;99.90;;;;;;5054633;28;20003;-96
2022/10/31 14:21:53;;;;;;;;;;;15.10;99.90;;;;;;5055819;28;19936;-95
2022/10/31 14:24:28;;;;;;;;;;;13.60;99.90;;;;;;5054520;28;19921;-95
2022/10/31 14:27:00;;;;;;;;;;;15.30;99.90;;;;;;5052242;28;19928;-95
2022/10/31 14:29:33;;;;;;;;;;;13.60;99.90;;;;;;5071508;28;19959;-95
2022/10/31 14:32:12;;;;;;;;;;;14.00;99.90;;;;;;5055716;28;19920;-96
2022/10/31 14:34:41;;;;;;;;;;;14.10;99.90;;;;;;5054399;28;19929;-96
2022/10/31 14:37:10;;;;;;;;;;;14.30;99.90;;;;;;5054339;28;19935;-95
2022/10/31 14:39:45;;;;;;;;;;;15.00;99.90;;;;;;5058548;22;20238;-89
2022/10/31 14:42:40;;;;;;;;;;;14.50;99.90;;;;;;5034978;28;19929;-89
2022/10/31 14:45:08;;;;;;;;;;;14.60;99.90;;;;;;5028853;28;20323;-89
2022/10/31 14:47:48;;;;;;;;;;;14.20;99.90;;;;;;5032695;28;19920;-91